Time;durP1;ratioP1;P1;durP2;ratioP2;P2;SDS_P1;SDS_P2;PMS_P1;PMS_P2;Temp;Humidity;BMP_temperature;BMP_pressure;BME280_temperature;BME280_humidity;BME280_pressure;Samples;Min_cycle;Max_cycle;Signal;HPM_P1;HPM_P2
2023/08/15 00:01:42;;;;;;;7.27;2.30;;;;;;;-145.18;100.00;46650.63;5015658;28;20030;-58
2023/08/15 00:04:07;;;;;;;6.73;2.03;;;;;;;-145.18;100.00;46642.81;5016823;28;20034;-58
2023/08/15 00:06:32;;;;;;;10.03;2.70;;;;;;;-145.18;100.00;46648.69;5016112;28;20057;-58
2023/08/15 00:08:59;;;;;;;10.37;2.87;;;;;;;-145.18;100.00;46650.63;5016577;28;20033;-58
2023/08/15 00:11:25;;;;;;;6.67;2.30;;;;;;;-145.18;100.00;46650.63;5023758;28;20041;-58
2023/08/15 00:13:53;;;;;;;13.77;2.40;;;;;;;-145.18;100.00;46644.78;5031374;28;20072;-58
2023/08/15 00:16:18;;;;;;;6.77;2.00;;;;;;;-145.18;100.00;46652.59;5017104;28;20042;-58
2023/08/15 00:18:44;;;;;;;9.53;2.30;;;;;;;-145.18;100.00;46648.69;5019669;28;20390;-58
2023/08/15 00:21:09;;;;;;;8.70;2.60;;;;;;;-145.18;100.00;46648.69;5016945;28;20052;-58
2023/08/15 00:23:35;;;;;;;9.60;2.30;;;;;;;-145.18;100.00;46648.69;5023924;28;20045;-58
2023/08/15 00:26:01;;;;;;;7.50;2.00;;;;;;;-145.18;100.00;46642.81;5016460;28;20390;-59
2023/08/15 00:28:26;;;;;;;5.60;2.07;;;;;;;-145.18;100.00;46640.88;5024853;28;20069;-61
2023/08/15 00:30:52;;;;;;;8.77;2.30;;;;;;;-145.18;100.00;46677.97;5023696;28;20749;-58
2023/08/15 00:33:17;;;;;;;7.83;2.20;;;;;;;-145.18;100.00;46660.41;5015904;28;20032;-61
2023/08/15 00:35:43;;;;;;;9.90;2.03;;;;;;;-145.18;100.00;46660.41;5019887;28;20041;-61
2023/08/15 00:38:08;;;;;;;7.20;2.30;;;;;;;-145.18;100.00;46660.41;5030559;28;20460;-58
2023/08/15 00:40:34;;;;;;;5.07;1.80;;;;;;;-145.18;100.00;46677.97;5032978;28;20481;-58
2023/08/15 00:42:59;;;;;;;10.10;2.03;;;;;;;-145.18;100.00;46660.41;5026180;28;20083;-58
2023/08/15 00:45:25;;;;;;;8.10;2.13;;;;;;;-145.18;100.00;46677.97;5020298;28;20032;-62
2023/08/15 00:47:51;;;;;;;5.20;2.37;;;;;;;-145.18;100.00;46640.88;5020098;28;20034;-62
2023/08/15 00:50:16;;;;;;;6.93;2.10;;;;;;;-145.18;100.00;46642.81;5019945;28;20053;-62
2023/08/15 00:52:42;;;;;;;10.00;1.97;;;;;;;-145.18;100.00;46644.78;5019048;28;20025;-62
2023/08/15 00:55:09;;;;;;;3.90;2.07;;;;;;;-145.18;100.00;46642.81;5026306;28;20022;-61
2023/08/15 00:57:35;;;;;;;12.00;2.40;;;;;;;-145.18;100.00;46642.81;5015173;28;20087;-62
2023/08/15 01:00:01;;;;;;;8.00;2.07;;;;;;;-145.18;100.00;46642.81;5026733;28;20014;-62
2023/08/15 01:02:26;;;;;;;10.50;2.03;;;;;;;-145.18;100.00;46646.72;5016312;28;20038;-61
2023/08/15 01:04:52;;;;;;;5.67;2.57;;;;;;;-145.18;100.00;46644.78;5017312;28;20363;-61
2023/08/15 01:07:17;;;;;;;6.13;1.90;;;;;;;-145.18;100.00;46677.97;5026375;28;20044;-61
2023/08/15 01:09:44;;;;;;;6.10;2.30;;;;;;;-145.18;100.00;46644.78;5015343;28;20037;-61
2023/08/15 01:12:16;;;;;;;11.27;2.77;;;;;;;-145.18;100.00;46660.41;5026969;28;20553;-62
2023/08/15 01:14:55;;;;;;;6.80;2.57;;;;;;;-145.18;100.00;46642.81;5029511;28;20033;-62
2023/08/15 01:17:28;;;;;;;8.80;2.63;;;;;;;-145.18;100.00;46642.81;5027648;28;20033;-62
2023/08/15 01:19:57;;;;;;;8.13;2.37;;;;;;;-145.18;100.00;46679.94;5031083;28;20481;-61
2023/08/15 01:22:27;;;;;;;7.77;2.53;;;;;;;-145.18;100.00;46679.94;5029385;28;20029;-61
2023/08/15 01:24:53;;;;;;;6.80;2.30;;;;;;;-145.18;100.00;46660.41;5031527;28;20045;-61
2023/08/15 01:27:19;;;;;;;8.33;2.10;;;;;;;-145.18;100.00;46660.41;5029236;28;20030;-61
2023/08/15 01:29:45;;;;;;;13.77;2.20;;;;;;;-145.18;100.00;46660.41;5024332;28;20168;-62
2023/08/15 01:32:27;;;;;;;9.43;2.47;;;;;;;-145.18;100.00;46660.41;5022891;28;20132;-62
2023/08/15 01:35:02;;;;;;;7.70;2.17;;;;;;;-145.18;100.00;46660.41;5025427;28;20064;-61
2023/08/15 01:37:30;;;;;;;7.65;2.35;;;;;;;-145.18;100.00;46660.41;5027184;28;20056;-62
2023/08/15 01:39:59;;;;;;;8.60;2.37;;;;;;;-145.18;100.00;46660.41;5029286;28;20045;-61
2023/08/15 01:42:25;;;;;;;7.73;1.80;;;;;;;-145.18;100.00;46660.41;5024061;28;20038;-61
2023/08/15 01:44:53;;;;;;;4.50;2.10;;;;;;;-145.18;100.00;46660.41;5026351;28;20030;-61
2023/08/15 01:47:19;;;;;;;7.93;1.90;;;;;;;-145.18;100.00;46660.41;5032343;28;20087;-61
2023/08/15 01:49:44;;;;;;;7.47;2.20;;;;;;;-145.18;100.00;46660.41;5026052;28;20029;-62
2023/08/15 01:52:10;;;;;;;5.80;2.30;;;;;;;-145.18;100.00;46660.41;5021501;28;20549;-61
2023/08/15 01:54:35;;;;;;;9.47;2.20;;;;;;;-145.18;100.00;46640.88;5013692;28;20034;-58
2023/08/15 01:57:01;;;;;;;6.00;2.23;;;;;;;-145.18;100.00;46660.41;5013634;28;20044;-58
2023/08/15 01:59:26;;;;;;;7.80;2.73;;;;;;;-145.18;100.00;46660.41;5023210;28;20055;-58
2023/08/15 02:01:51;;;;;;;4.83;2.23;;;;;;;-145.18;100.00;46660.41;5018681;28;20065;-59
2023/08/15 02:04:17;;;;;;;7.30;2.77;;;;;;;-145.18;100.00;46660.41;5031807;28;20025;-59
2023/08/15 02:06:42;;;;;;;6.67;2.30;;;;;;;-145.18;100.00;46676.03;5031959;28;20028;-58
2023/08/15 02:09:07;;;;;;;6.23;2.20;;;;;;;-145.18;100.00;46677.97;5027593;28;20022;-58
2023/08/15 02:11:33;;;;;;;6.60;2.40;;;;;;;-145.18;100.00;46660.41;5028650;28;20044;-58
2023/08/15 02:13:58;;;;;;;6.57;2.60;;;;;;;-145.18;100.00;46660.41;5024876;28;20053;-58
2023/08/15 02:16:24;;;;;;;9.23;3.23;;;;;;;-145.18;100.00;46660.41;5029047;28;20036;-59
2023/08/15 02:18:49;;;;;;;6.93;2.80;;;;;;;-145.18;100.00;46660.41;5025140;28;20032;-58
2023/08/15 02:21:14;;;;;;;7.57;2.57;;;;;;;-145.18;100.00;46660.41;5027968;28;20037;-59
2023/08/15 02:23:40;;;;;;;11.77;3.17;;;;;;;-145.18;100.00;46660.41;5026054;28;20133;-58
2023/08/15 02:26:05;;;;;;;8.03;2.90;;;;;;;-145.18;100.00;46660.41;5029396;28;20021;-58
2023/08/15 02:28:33;;;;;;;9.50;2.93;;;;;;;-145.18;100.00;46660.41;5025490;28;20503;-58
2023/08/15 02:30:59;;;;;;;10.23;3.07;;;;;;;-145.18;100.00;46660.41;5029099;28;20025;-58
2023/08/15 02:33:24;;;;;;;7.77;2.67;;;;;;;-145.18;100.00;46660.41;5014218;28;20025;-61
2023/08/15 02:35:53;;;;;;;9.20;2.97;;;;;;;-145.18;100.00;46660.41;5025921;28;20104;-58
2023/08/15 02:38:18;;;;;;;11.17;3.10;;;;;;;-145.18;100.00;46660.41;5022849;28;20489;-57
2023/08/15 02:40:43;;;;;;;9.30;2.83;;;;;;;-145.18;100.00;46660.41;5024028;28;20065;-59
2023/08/15 02:43:09;;;;;;;21.50;3.70;;;;;;;-145.18;100.00;46660.41;5022584;28;20397;-58
2023/08/15 02:45:34;;;;;;;7.67;3.27;;;;;;;-145.18;100.00;46660.41;5028064;28;20039;-58
2023/08/15 02:48:00;;;;;;;12.03;3.27;;;;;;;-145.18;100.00;46660.41;5015052;28;20080;-58
2023/08/15 02:50:25;;;;;;;11.77;3.60;;;;;;;-145.18;100.00;46658.44;5018815;28;20064;-58
2023/08/15 02:52:50;;;;;;;7.50;3.43;;;;;;;-145.18;100.00;46660.41;5015089;28;20072;-58
2023/08/15 02:55:16;;;;;;;10.30;3.30;;;;;;;-145.18;100.00;46660.41;5017217;28;20108;-58
2023/08/15 02:57:41;;;;;;;12.13;3.20;;;;;;;-145.18;100.00;46660.41;5015042;28;20034;-59
2023/08/15 03:00:07;;;;;;;9.00;3.17;;;;;;;-145.18;100.00;46658.44;5017597;28;20125;-58
2023/08/15 03:02:33;;;;;;;11.20;3.30;;;;;;;-145.18;100.00;46660.41;5015193;28;20026;-58
2023/08/15 03:04:59;;;;;;;7.03;3.30;;;;;;;-145.18;100.00;46660.41;5017793;28;20033;-62
2023/08/15 03:07:24;;;;;;;11.80;2.60;;;;;;;-145.18;100.00;46660.41;5024605;28;20030;-62
2023/08/15 03:09:50;;;;;;;11.50;2.87;;;;;;;-145.18;100.00;46660.41;5028869;28;20486;-61
2023/08/15 03:12:15;;;;;;;9.37;3.33;;;;;;;-145.18;100.00;46660.41;5013776;28;20560;-62
2023/08/15 03:14:40;;;;;;;10.17;3.37;;;;;;;-145.18;100.00;46658.44;5020825;28;20072;-64
2023/08/15 03:17:07;;;;;;;8.17;3.20;;;;;;;-145.18;100.00;46660.41;5018582;28;20022;-62
2023/08/15 03:19:33;;;;;;;7.73;3.60;;;;;;;-145.18;100.00;46658.44;5029417;28;20560;-62
2023/08/15 03:21:58;;;;;;;6.73;3.73;;;;;;;-145.18;100.00;46658.44;5017548;28;20168;-62
2023/08/15 03:24:28;;;;;;;11.03;3.13;;;;;;;-145.18;100.00;46658.44;5020497;28;20413;-62
2023/08/15 03:26:53;;;;;;;7.80;3.33;;;;;;;-145.18;100.00;46660.41;5015786;28;20397;-62
2023/08/15 03:29:18;;;;;;;8.97;3.43;;;;;;;-145.18;100.00;46656.50;5017775;28;20057;-62
2023/08/15 03:31:44;;;;;;;9.43;3.50;;;;;;;-145.18;100.00;46656.50;5016691;28;20026;-62
2023/08/15 03:34:09;;;;;;;17.57;3.70;;;;;;;-145.18;100.00;46654.53;5030841;28;20112;-62
2023/08/15 03:36:34;;;;;;;9.13;4.03;;;;;;;-145.18;100.00;46654.53;5020091;28;20398;-62
2023/08/15 03:39:00;;;;;;;6.17;3.83;;;;;;;-145.18;100.00;46656.50;5024559;28;20026;-62
2023/08/15 03:41:25;;;;;;;10.80;3.70;;;;;;;-145.18;100.00;46654.53;5028287;28;20069;-62
2023/08/15 03:43:50;;;;;;;11.10;3.53;;;;;;;-145.18;100.00;46652.59;5022412;28;20040;-62
2023/08/15 03:46:16;;;;;;;9.33;3.87;;;;;;;-145.18;100.00;46656.50;5027364;28;20126;-62
2023/08/15 03:48:41;;;;;;;10.67;3.80;;;;;;;-145.18;100.00;46652.59;5024077;28;20026;-62
2023/08/15 03:51:07;;;;;;;11.07;3.60;;;;;;;-145.18;100.00;46652.59;5020320;28;20105;-62
2023/08/15 03:53:32;;;;;;;9.50;3.80;;;;;;;-145.18;100.00;46656.50;5027323;28;20060;-62
2023/08/15 03:55:58;;;;;;;6.97;3.00;;;;;;;-145.18;100.00;46648.69;5019881;28;20021;-62
2023/08/15 03:58:24;;;;;;;6.73;3.23;;;;;;;-145.18;100.00;46650.63;5022974;28;20025;-62
2023/08/15 04:00:49;;;;;;;10.37;2.83;;;;;;;-145.18;100.00;46654.53;5018497;28;20474;-63
2023/08/15 04:03:16;;;;;;;8.53;3.17;;;;;;;-145.18;100.00;46642.81;5020974;28;20121;-62
2023/08/15 04:05:48;;;;;;;12.93;3.77;;;;;;;-145.18;100.00;46652.59;5018154;28;20029;-62
2023/08/15 04:08:15;;;;;;;6.97;2.90;;;;;;;-145.18;100.00;46652.59;5019205;28;20029;-62
2023/08/15 04:10:43;;;;;;;14.47;3.67;;;;;;;-145.18;100.00;46650.63;5016906;28;20034;-62
2023/08/15 04:13:09;;;;;;;9.87;3.63;;;;;;;-145.18;100.00;46642.81;5029994;28;20041;-62
2023/08/15 04:15:36;;;;;;;6.37;3.17;;;;;;;-145.18;100.00;46650.63;5016589;28;20072;-58
2023/08/15 04:18:04;;;;;;;10.17;3.10;;;;;;;-145.18;100.00;46656.50;5016356;28;20030;-58
2023/08/15 04:20:29;;;;;;;9.03;3.20;;;;;;;-145.18;100.00;46656.50;5027006;28;20033;-59
2023/08/15 04:22:55;;;;;;;9.27;3.20;;;;;;;-145.18;100.00;46652.59;5011176;28;20106;-58
2023/08/15 04:25:20;;;;;;;8.23;3.00;;;;;;;-145.18;100.00;46652.59;5026129;28;20061;-58
2023/08/15 04:27:45;;;;;;;10.90;3.00;;;;;;;-145.18;100.00;46642.81;5032481;28;20468;-59
2023/08/15 04:30:11;;;;;;;10.17;3.00;;;;;;;-145.18;100.00;46652.59;5029345;28;20143;-58
2023/08/15 04:32:36;;;;;;;6.97;3.03;;;;;;;-145.18;100.00;46650.63;5028831;28;20029;-58
2023/08/15 04:35:02;;;;;;;7.10;3.30;;;;;;;-145.18;100.00;46656.50;5025720;28;20117;-58
2023/08/15 04:37:27;;;;;;;9.43;4.20;;;;;;;-145.18;100.00;46652.59;5027071;28;20052;-58
2023/08/15 04:39:53;;;;;;;7.57;3.03;;;;;;;-145.18;100.00;46654.53;5016788;28;20034;-58
2023/08/15 04:42:18;;;;;;;13.67;3.80;;;;;;;-145.18;100.00;46654.53;5018753;28;20396;-58
2023/08/15 04:44:44;;;;;;;12.87;3.30;;;;;;;-145.18;100.00;46658.44;5022075;28;20069;-58
2023/08/15 04:47:09;;;;;;;9.57;3.73;;;;;;;-145.18;100.00;46654.53;5027056;28;20045;-58
2023/08/15 04:49:34;;;;;;;9.17;3.30;;;;;;;-145.18;100.00;46650.63;5014754;28;20527;-59
2023/08/15 04:52:00;;;;;;;10.13;4.23;;;;;;;-145.18;100.00;46652.59;5022035;28;20449;-58
2023/08/15 04:54:26;;;;;;;8.00;3.43;;;;;;;-145.18;100.00;46650.63;5017473;28;20538;-58
2023/08/15 04:56:52;;;;;;;10.33;3.73;;;;;;;-145.18;100.00;46652.59;5029573;28;20056;-59
2023/08/15 04:59:17;;;;;;;9.10;3.23;;;;;;;-145.18;100.00;46652.59;5028033;28;20033;-59
2023/08/15 05:01:43;;;;;;;8.77;4.20;;;;;;;-145.18;100.00;46640.88;5033443;28;20037;-59
2023/08/15 05:04:08;;;;;;;7.70;3.40;;;;;;;-145.18;100.00;46652.59;5028317;28;20040;-59
2023/08/15 05:06:34;;;;;;;10.60;3.53;;;;;;;-145.18;100.00;46650.63;5029764;28;20115;-58
2023/08/15 05:08:59;;;;;;;7.53;3.70;;;;;;;-145.18;100.00;46658.44;5030683;28;20392;-58
2023/08/15 05:11:24;;;;;;;12.30;4.13;;;;;;;-145.18;100.00;46652.59;5040628;28;20091;-58
2023/08/15 05:13:50;;;;;;;14.13;4.37;;;;;;;-145.18;100.00;46650.63;5027422;28;20525;-59
2023/08/15 05:16:15;;;;;;;9.37;4.40;;;;;;;-145.18;100.00;46652.59;5029058;28;20037;-58
2023/08/15 05:18:42;;;;;;;9.47;4.37;;;;;;;-145.18;100.00;46654.53;5023923;28;20036;-59
2023/08/15 05:21:07;;;;;;;10.03;4.07;;;;;;;-145.18;100.00;46642.81;5030937;28;20033;-59
2023/08/15 05:23:33;;;;;;;9.87;4.40;;;;;;;-145.18;100.00;46640.88;5022440;28;20050;-59
2023/08/15 05:25:58;;;;;;;8.67;4.03;;;;;;;-145.18;100.00;46650.63;5032023;28;20037;-59
2023/08/15 05:28:23;;;;;;;18.70;4.40;;;;;;;-145.18;100.00;46652.59;5029831;28;20129;-58
2023/08/15 05:30:49;;;;;;;17.37;5.43;;;;;;;-145.18;100.00;46654.53;5032764;28;20396;-58
2023/08/15 05:33:14;;;;;;;11.67;4.27;;;;;;;-145.18;100.00;46650.63;5032549;28;20049;-58
2023/08/15 05:35:39;;;;;;;11.73;4.50;;;;;;;-145.18;100.00;46652.59;5024464;28;20048;-58
2023/08/15 05:38:05;;;;;;;10.73;4.17;;;;;;;-145.18;100.00;46642.81;5032209;28;20037;-59
2023/08/15 05:40:33;;;;;;;13.80;4.10;;;;;;;-145.18;100.00;46640.88;5031797;28;20033;-58
2023/08/15 05:42:58;;;;;;;7.23;4.30;;;;;;;-145.18;100.00;46650.63;5019873;28;20050;-58
2023/08/15 05:45:24;;;;;;;10.33;3.97;;;;;;;-145.18;100.00;46640.88;5020735;28;20032;-59
2023/08/15 05:47:49;;;;;;;10.77;3.53;;;;;;;-145.18;100.00;46652.59;5021137;28;20486;-59
2023/08/15 05:50:14;;;;;;;8.07;3.23;;;;;;;-145.18;100.00;46640.88;5018844;28;20038;-58
2023/08/15 05:52:40;;;;;;;12.30;4.03;;;;;;;-145.18;100.00;46650.63;5025679;28;20489;-59
2023/08/15 05:55:06;;;;;;;12.27;4.30;;;;;;;-145.18;100.00;46652.59;5004301;28;20107;-59
2023/08/15 05:57:31;;;;;;;14.47;4.30;;;;;;;-145.18;100.00;46656.50;5028415;28;20099;-59
2023/08/15 05:59:57;;;;;;;8.87;4.03;;;;;;;-145.18;100.00;46652.59;5025278;28;20481;-58
2023/08/15 06:02:22;;;;;;;12.43;4.07;;;;;;;-145.18;100.00;46652.59;5032787;28;20052;-59
2023/08/15 06:04:47;;;;;;;11.00;5.13;;;;;;;-145.18;100.00;46617.41;5025026;28;20042;-58
2023/08/15 06:07:13;;;;;;;17.17;4.47;;;;;;;-145.18;100.00;46615.47;5027231;28;20033;-58
2023/08/15 06:09:39;;;;;;;7.37;3.90;;;;;;;-145.18;100.00;46617.41;5028392;28;20079;-58
2023/08/15 06:12:05;;;;;;;10.47;4.67;;;;;;;-145.18;100.00;46617.41;5025195;28;20036;-59
2023/08/15 06:14:31;;;;;;;8.93;4.20;;;;;;;-145.18;100.00;46619.38;5030600;28;20071;-58
2023/08/15 06:16:57;;;;;;;16.57;4.50;;;;;;;-145.18;100.00;46617.41;5025676;28;20037;-58
2023/08/15 06:19:22;;;;;;;11.57;4.43;;;;;;;-145.18;100.00;46617.41;5015467;28;20030;-59
2023/08/15 06:21:48;;;;;;;8.77;5.00;;;;;;;-145.18;100.00;46619.38;5004884;28;20033;-58
2023/08/15 06:24:15;;;;;;;8.17;3.83;;;;;;;-145.18;100.00;46619.38;5015242;28;20054;-59
2023/08/15 06:26:40;;;;;;;11.77;4.13;;;;;;;-145.18;100.00;46623.28;5024474;28;20043;-58
2023/08/15 06:29:06;;;;;;;7.70;3.70;;;;;;;-145.18;100.00;46623.28;5024156;28;20052;-58
2023/08/15 06:31:32;;;;;;;10.47;4.17;;;;;;;-145.18;100.00;46623.28;5024858;28;20277;-59
2023/08/15 06:33:58;;;;;;;10.13;3.90;;;;;;;-145.18;100.00;46625.22;5025993;28;20403;-58
2023/08/15 06:36:24;;;;;;;8.03;3.90;;;;;;;-145.18;100.00;46631.09;5027945;28;20029;-58
2023/08/15 06:38:50;;;;;;;12.10;4.47;;;;;;;-145.18;100.00;46633.06;5018881;28;20034;-59
2023/08/15 06:41:16;;;;;;;11.40;4.53;;;;;;;-145.18;100.00;46633.06;5027099;28;20049;-59
2023/08/15 06:43:41;;;;;;;10.07;3.87;;;;;;;-145.18;100.00;46631.09;5028723;28;20123;-61
2023/08/15 06:46:07;;;;;;;11.80;3.97;;;;;;;-145.18;100.00;46633.06;5030018;28;20033;-59
2023/08/15 06:48:32;;;;;;;11.87;3.70;;;;;;;-145.18;100.00;46633.06;5028313;28;20060;-59
2023/08/15 06:50:57;;;;;;;10.97;4.23;;;;;;;-145.18;100.00;46631.09;5030435;28;20113;-58
2023/08/15 06:53:23;;;;;;;8.90;3.70;;;;;;;-145.18;100.00;46635.00;5031388;28;20038;-59
2023/08/15 06:55:49;;;;;;;10.87;3.90;;;;;;;-145.18;100.00;46633.06;5029852;28;20033;-58
2023/08/15 06:58:15;;;;;;;10.30;3.77;;;;;;;-145.18;100.00;46635.00;5027724;28;20080;-58
2023/08/15 07:00:42;;;;;;;11.80;3.50;;;;;;;-145.18;100.00;46636.94;5029820;28;20374;-59
2023/08/15 07:03:07;;;;;;;12.07;3.30;;;;;;;-145.18;100.00;46633.06;5029425;28;20531;-58
2023/08/15 07:05:34;;;;;;;9.83;3.40;;;;;;;-145.18;100.00;46633.06;5028121;28;20033;-59
2023/08/15 07:07:59;;;;;;;11.43;3.57;;;;;;;-145.18;100.00;46633.06;5025141;28;20121;-59
2023/08/15 07:10:25;;;;;;;11.33;3.67;;;;;;;-145.18;100.00;46633.06;5020101;28;20124;-59
2023/08/15 07:12:50;;;;;;;10.53;3.30;;;;;;;-145.18;100.00;46635.00;5026533;28;20079;-59
2023/08/15 07:15:16;;;;;;;9.00;3.47;;;;;;;-145.18;100.00;46640.88;5023619;28;20038;-59
2023/08/15 07:17:41;;;;;;;12.97;3.53;;;;;;;-145.18;100.00;46638.91;5023454;28;20038;-59
2023/08/15 07:20:08;;;;;;;11.97;3.47;;;;;;;-145.18;100.00;46636.94;5030542;28;20033;-59
2023/08/15 07:22:34;;;;;;;19.03;4.63;;;;;;;-145.18;100.00;46636.94;5026011;28;20034;-59
2023/08/15 07:25:00;;;;;;;11.17;3.57;;;;;;;-145.18;100.00;46635.00;5022017;28;20115;-59
2023/08/15 07:27:25;;;;;;;10.40;3.13;;;;;;;-145.18;100.00;46635.00;5030104;28;20076;-58
2023/08/15 07:29:51;;;;;;;11.57;3.90;;;;;;;-145.18;100.00;46642.81;5015569;28;20117;-59
2023/08/15 07:32:16;;;;;;;10.33;3.40;;;;;;;-145.18;100.00;46642.81;5032211;28;20485;-59
2023/08/15 07:34:42;;;;;;;10.57;3.33;;;;;;;-145.18;100.00;46642.81;5035410;28;20045;-59
2023/08/15 07:37:07;;;;;;;9.53;3.17;;;;;;;-145.18;100.00;46638.91;5020653;28;20042;-59
2023/08/15 07:39:32;;;;;;;8.27;3.17;;;;;;;-145.18;100.00;46638.91;5023192;28;20037;-59
2023/08/15 07:41:58;;;;;;;10.43;3.50;;;;;;;-145.18;100.00;46640.88;5021558;28;20055;-59
2023/08/15 07:44:25;;;;;;;10.50;3.60;;;;;;;-145.18;100.00;46644.78;5024249;28;20128;-59
2023/08/15 07:46:50;;;;;;;8.23;3.20;;;;;;;-145.18;100.00;46642.81;5027493;28;20037;-59
2023/08/15 07:49:16;;;;;;;7.13;2.90;;;;;;;-145.18;100.00;46642.81;5025996;28;20379;-59
2023/08/15 07:51:41;;;;;;;11.03;3.00;;;;;;;-145.18;100.00;46640.88;5027319;28;20112;-59
2023/08/15 07:54:06;;;;;;;6.77;2.57;;;;;;;-145.18;100.00;46642.81;5010572;28;20030;-58
2023/08/15 07:56:33;;;;;;;9.70;4.03;;;;;;;-145.18;100.00;46640.88;5029152;28;20041;-59
2023/08/15 07:58:59;;;;;;;9.73;3.13;;;;;;;-145.18;100.00;46640.88;5026146;28;20125;-58
2023/08/15 08:01:24;;;;;;;11.17;3.00;;;;;;;-145.18;100.00;46646.72;5032945;28;20567;-59
2023/08/15 08:03:50;;;;;;;9.90;2.80;;;;;;;-145.18;100.00;46648.69;5030286;28;20397;-59
2023/08/15 08:06:15;;;;;;;12.40;3.13;;;;;;;-145.18;100.00;46656.50;5022529;28;20037;-59
2023/08/15 08:08:41;;;;;;;7.30;2.93;;;;;;;-145.18;100.00;46652.59;5029824;28;20033;-59
2023/08/15 08:11:07;;;;;;;10.47;3.27;;;;;;;-145.18;100.00;46648.69;5031844;28;20065;-58
2023/08/15 08:13:32;;;;;;;9.70;3.23;;;;;;;-145.18;100.00;46650.63;5029525;28;20065;-58
2023/08/15 08:15:57;;;;;;;10.27;3.07;;;;;;;-145.18;100.00;46648.69;5031035;28;20034;-59
2023/08/15 08:18:23;;;;;;;9.67;3.17;;;;;;;-145.18;100.00;46650.63;5031676;28;20061;-59
2023/08/15 08:20:49;;;;;;;11.97;4.03;;;;;;;-145.18;100.00;46650.63;5025858;28;20527;-59
2023/08/15 08:23:15;;;;;;;6.83;2.70;;;;;;;-145.18;100.00;46652.59;5030800;28;20045;-59
2023/08/15 08:25:40;;;;;;;7.40;3.00;;;;;;;-145.18;100.00;46654.53;5017370;28;20065;-59
2023/08/15 08:28:06;;;;;;;9.83;4.03;;;;;;;-145.18;100.00;46660.41;5027288;28;20033;-59
2023/08/15 08:30:33;;;;;;;13.03;2.60;;;;;;;-145.18;100.00;46664.31;5021059;28;20072;-59
2023/08/15 08:32:58;;;;;;;8.90;2.90;;;;;;;-145.18;100.00;46666.25;5022367;28;20100;-59
2023/08/15 08:35:24;;;;;;;15.20;3.50;;;;;;;-145.18;100.00;46668.22;5030497;28;20461;-59
2023/08/15 08:37:49;;;;;;;8.23;3.70;;;;;;;-145.18;100.00;46666.25;5032128;28;20041;-59
2023/08/15 08:40:16;;;;;;;8.83;3.50;;;;;;;-145.18;100.00;46666.25;5030325;28;20043;-59
2023/08/15 08:42:42;;;;;;;10.13;3.63;;;;;;;-145.18;100.00;46668.22;5030511;28;20407;-59
2023/08/15 08:45:11;;;;;;;9.80;3.27;;;;;;;-145.18;100.00;46660.41;5031400;28;20087;-59
2023/08/15 08:47:39;;;;;;;7.37;2.97;;;;;;;-145.18;100.00;46666.25;5029477;28;20045;-58
2023/08/15 08:50:09;;;;;;;8.20;3.20;;;;;;;-145.18;100.00;46670.16;5029452;28;20124;-59
2023/08/15 08:52:37;;;;;;;8.97;2.70;;;;;;;-145.18;100.00;46670.16;5021468;28;20034;-59
2023/08/15 08:55:03;;;;;;;7.87;2.83;;;;;;;-145.18;100.00;46666.25;5028067;28;20029;-62
2023/08/15 08:57:30;;;;;;;5.77;2.50;;;;;;;-145.18;100.00;46664.31;5034874;28;20477;-62
2023/08/15 08:59:58;;;;;;;10.23;3.20;;;;;;;-145.18;100.00;46672.13;5031998;28;20409;-62
2023/08/15 09:02:23;;;;;;;9.13;3.23;;;;;;;-145.18;100.00;46670.16;5033020;28;20037;-62
2023/08/15 09:04:49;;;;;;;9.93;3.00;;;;;;;-145.18;100.00;46668.22;5030538;28;20072;-62
2023/08/15 09:07:15;;;;;;;8.20;2.70;;;;;;;-145.18;100.00;46666.25;5031151;28;20079;-62
2023/08/15 09:09:40;;;;;;;8.93;3.37;;;;;;;-145.18;100.00;46670.16;5031949;28;20425;-62
2023/08/15 09:12:06;;;;;;;8.60;2.70;;;;;;;-145.18;100.00;46670.16;5032812;28;20526;-62
2023/08/15 09:14:32;;;;;;;7.27;3.07;;;;;;;-145.18;100.00;46666.25;5031235;28;20083;-62
2023/08/15 09:16:57;;;;;;;11.80;3.20;;;;;;;-145.18;100.00;46638.91;5032099;28;20116;-62
2023/08/15 09:19:23;;;;;;;6.80;2.70;;;;;;;-145.18;100.00;46668.22;5032751;28;20123;-62
2023/08/15 09:21:48;;;;;;;7.67;2.97;;;;;;;-145.18;100.00;46672.13;5030447;28;20032;-62
2023/08/15 09:24:14;;;;;;;8.97;2.73;;;;;;;-145.18;100.00;46674.06;5033013;28;20053;-62
2023/08/15 09:26:42;;;;;;;8.00;2.87;;;;;;;-145.18;100.00;46674.06;5031150;28;20495;-62
2023/08/15 09:29:07;;;;;;;5.17;3.07;;;;;;;-145.18;100.00;46670.16;5032303;28;20090;-62
2023/08/15 09:31:33;;;;;;;8.07;2.63;;;;;;;-145.18;100.00;46660.41;5030751;28;20041;-62
2023/08/15 09:33:58;;;;;;;8.57;3.00;;;;;;;-145.18;100.00;46666.25;5032166;28;20052;-62
2023/08/15 09:36:24;;;;;;;5.67;2.40;;;;;;;-145.18;100.00;46676.03;5030152;28;20048;-62
2023/08/15 09:39:00;;;;;;;9.70;2.60;;;;;;;-145.18;100.00;46676.03;5027944;28;20055;-62
2023/08/15 09:41:25;;;;;;;7.47;2.77;;;;;;;-145.18;100.00;46677.97;5031535;28;20408;-62
2023/08/15 09:43:53;;;;;;;6.93;2.73;;;;;;;-145.18;100.00;46677.97;5027390;28;20034;-62
2023/08/15 09:46:20;;;;;;;14.83;2.77;;;;;;;-145.18;100.00;46679.94;5031711;28;20041;-62
2023/08/15 09:48:47;;;;;;;11.73;2.93;;;;;;;-145.18;100.00;46677.97;5029494;28;20033;-62
2023/08/15 09:51:15;;;;;;;10.23;2.40;;;;;;;-145.18;100.00;46677.97;5031877;28;20036;-62
2023/08/15 09:53:46;;;;;;;8.73;3.50;;;;;;;-145.18;100.00;46668.22;5032031;28;20500;-62
2023/08/15 09:56:12;;;;;;;10.43;3.03;;;;;;;-145.18;100.00;46660.41;5029741;28;20141;-63
2023/08/15 09:58:38;;;;;;;7.93;2.70;;;;;;;-145.18;100.00;46644.78;5031706;28;20045;-62
2023/08/15 10:01:07;;;;;;;13.63;3.37;;;;;;;-145.18;100.00;46640.88;5031755;28;20369;-62
2023/08/15 10:03:38;;;;;;;8.20;2.97;;;;;;;-145.18;100.00;46638.91;5031971;28;20128;-62
2023/08/15 10:06:07;;;;;;;10.37;3.93;;;;;;;-145.18;100.00;46631.09;5032274;28;20033;-59
2023/08/15 10:08:36;;;;;;;9.00;3.57;;;;;;;-145.18;100.00;46631.09;5029950;28;20048;-59
2023/08/15 10:11:05;;;;;;;12.60;3.30;;;;;;;-145.18;100.00;46633.06;5031500;28;20103;-59
2023/08/15 10:13:33;;;;;;;8.93;3.17;;;;;;;-145.18;100.00;46633.06;5031446;28;20504;-59
2023/08/15 10:16:00;;;;;;;9.97;3.50;;;;;;;-145.18;100.00;46629.13;5029155;28;20040;-59
2023/08/15 10:18:25;;;;;;;9.67;3.03;;;;;;;-145.18;100.00;46635.00;5031415;28;20049;-59
2023/08/15 10:20:52;;;;;;;14.23;3.23;;;;;;;-145.18;100.00;46638.91;5031540;28;20499;-59
2023/08/15 10:23:28;;;;;;;6.90;2.70;;;;;;;-145.18;100.00;46640.88;5030205;28;20086;-59
2023/08/15 10:25:53;;;;;;;7.50;2.70;;;;;;;-145.18;100.00;46638.91;5031187;28;20053;-59
2023/08/15 10:28:19;;;;;;;11.23;2.50;;;;;;;-145.18;100.00;46646.72;5031121;28;20188;-59
2023/08/15 10:30:46;;;;;;;7.17;2.30;;;;;;;-145.18;100.00;46650.63;5031492;28;20095;-59
2023/08/15 10:33:15;;;;;;;8.23;2.83;;;;;;;-145.18;100.00;46662.34;5030986;28;20075;-59
2023/08/15 10:35:51;;;;;;;12.17;2.90;;;;;;;-145.18;100.00;46664.31;5030941;28;20053;-59
2023/08/15 10:38:19;;;;;;;7.93;2.60;;;;;;;-145.18;100.00;46670.16;5030550;28;20060;-59
2023/08/15 10:40:46;;;;;;;6.43;2.30;;;;;;;-145.18;100.00;46672.13;5030943;28;20103;-59
2023/08/15 10:43:12;;;;;;;5.45;3.05;;;;;;;-145.18;100.00;46672.13;5030963;28;20052;-59
2023/08/15 10:45:52;;;;;;;9.03;2.73;;;;;;;-145.18;100.00;46679.94;5030602;28;20468;-59
2023/08/15 10:48:43;;;;;;;9.70;3.30;;;;;;;-145.18;100.00;46668.22;5030210;28;20025;-59
2023/08/15 10:51:23;;;;;;;8.75;3.30;;;;;;;-145.18;100.00;46672.13;5030909;28;20072;-59
2023/08/15 10:53:50;;;;;;;13.57;4.27;;;;;;;-145.18;100.00;46672.13;5028545;28;20029;-59
2023/08/15 10:56:22;;;;;;;6.50;3.07;;;;;;;-145.18;100.00;46676.03;5031311;28;20124;-59
2023/08/15 10:58:49;;;;;;;5.97;3.23;;;;;;;-145.18;100.00;46676.03;5031094;28;20079;-58
2023/08/15 11:01:19;;;;;;;13.13;3.60;;;;;;;-145.18;100.00;46676.03;5031140;28;20029;-59
2023/08/15 11:03:50;;;;;;;9.83;3.07;;;;;;;-145.18;100.00;46676.03;5030738;28;20021;-59